createdAt,value
2023-03-11T00:00:17.261Z,21.34
2023-03-11T00:01:17.344Z,21.34
2023-03-11T00:02:17.496Z,21.36
2023-03-11T00:03:17.523Z,21.34
2023-03-11T00:04:17.592Z,21.33
2023-03-11T00:05:17.728Z,21.33
2023-03-11T00:06:17.735Z,21.33
2023-03-11T00:07:17.787Z,21.31
2023-03-11T00:08:17.858Z,21.33
2023-03-11T00:09:17.947Z,21.31
2023-03-11T00:10:18.002Z,21.31
2023-03-11T00:11:18.051Z,21.31
2023-03-11T00:12:18.142Z,21.30
2023-03-11T00:13:18.214Z,21.30
2023-03-11T00:14:18.311Z,21.28
2023-03-11T00:15:18.345Z,21.28
2023-03-11T00:16:18.493Z,21.28
2023-03-11T00:17:18.493Z,21.28
2023-03-11T00:18:18.580Z,21.28
2023-03-11T00:19:18.699Z,21.27
2023-03-11T00:20:18.736Z,21.27
2023-03-11T00:21:18.830Z,21.26
2023-03-11T00:22:18.907Z,21.26
2023-03-11T00:23:18.998Z,21.26
2023-03-11T00:24:19.069Z,21.24
2023-03-11T00:25:19.129Z,21.24
2023-03-11T00:26:19.201Z,21.24
2023-03-11T00:27:19.274Z,21.24
2023-03-11T00:28:19.375Z,21.26
2023-03-11T00:29:19.482Z,21.22
2023-03-11T00:30:19.559Z,21.22
2023-03-11T00:31:19.716Z,21.21
2023-03-11T00:32:19.777Z,21.21
2023-03-11T00:33:19.793Z,21.22
2023-03-11T00:34:19.899Z,21.21
2023-03-11T00:35:19.936Z,21.19
2023-03-11T00:36:20.032Z,21.21
2023-03-11T00:37:20.109Z,21.19
2023-03-11T00:38:20.215Z,21.18
2023-03-11T00:39:20.285Z,21.19
2023-03-11T00:40:20.327Z,21.19
2023-03-11T00:41:20.411Z,21.18
2023-03-11T00:42:20.501Z,21.16
2023-03-11T00:43:20.575Z,21.18
2023-03-11T00:44:20.687Z,21.16
2023-03-11T00:45:20.710Z,21.18
2023-03-11T00:46:20.879Z,21.15
2023-03-11T00:47:20.889Z,21.15
2023-03-11T00:48:20.975Z,21.15
2023-03-11T00:49:21.052Z,21.15
2023-03-11T00:50:21.133Z,21.13
2023-03-11T00:51:21.214Z,21.12
2023-03-11T00:52:21.309Z,21.12
2023-03-11T00:53:21.374Z,21.12
2023-03-11T00:54:21.499Z,21.12
2023-03-11T00:55:21.549Z,21.12
2023-03-11T00:56:21.650Z,21.11
2023-03-11T00:57:21.746Z,21.11
2023-03-11T00:58:21.811Z,21.11
2023-03-11T00:59:21.924Z,21.11
2023-03-11T01:00:21.994Z,21.11
2023-03-11T01:01:22.221Z,21.09
2023-03-11T01:02:22.167Z,21.09
2023-03-11T01:03:22.275Z,21.09
2023-03-11T01:04:22.447Z,21.06
2023-03-11T01:05:22.411Z,21.08
2023-03-11T01:06:23.415Z,21.08
2023-03-11T01:07:22.600Z,21.08
2023-03-11T01:08:22.677Z,21.09
2023-03-11T01:09:22.782Z,21.08
2023-03-11T01:10:22.872Z,21.05
2023-03-11T01:11:22.985Z,21.05
2023-03-11T01:12:23.056Z,21.05
2023-03-11T01:13:23.165Z,21.05
2023-03-11T01:14:23.235Z,21.05
2023-03-11T01:15:23.284Z,21.05
2023-03-11T01:16:23.485Z,21.05
2023-03-11T01:17:23.457Z,21.03
2023-03-11T01:18:23.563Z,21.03
2023-03-11T01:19:23.642Z,21.01
2023-03-11T01:20:23.746Z,21.03
2023-03-11T01:21:23.830Z,21.01
2023-03-11T01:22:23.943Z,21.00
2023-03-11T01:23:24.011Z,21.01
2023-03-11T01:24:24.113Z,21.01
2023-03-11T01:25:24.193Z,21.00
2023-03-11T01:26:24.233Z,21.00
2023-03-11T01:27:24.283Z,21.01
2023-03-11T01:28:24.398Z,20.98
2023-03-11T01:29:24.491Z,20.98
2023-03-11T01:30:24.573Z,20.97
2023-03-11T01:31:24.711Z,20.97
2023-03-11T01:32:24.728Z,20.98
2023-03-11T01:33:24.756Z,20.98
2023-03-11T01:34:24.897Z,20.98
2023-03-11T01:35:24.936Z,20.97
2023-03-11T01:36:24.999Z,20.96
2023-03-11T01:37:25.092Z,20.96
2023-03-11T01:38:25.190Z,20.96
2023-03-11T01:39:25.295Z,20.97
2023-03-11T01:40:25.396Z,20.94
2023-03-11T01:41:25.451Z,20.94
2023-03-11T01:42:25.550Z,20.94
2023-03-11T01:43:25.607Z,20.94
2023-03-11T01:44:25.785Z,20.94
2023-03-11T01:45:25.795Z,20.93
2023-03-11T01:46:25.987Z,20.93
2023-03-11T01:47:25.972Z,20.93
2023-03-11T01:48:26.038Z,20.93
2023-03-11T01:49:26.161Z,20.94
2023-03-11T01:50:26.200Z,20.93
2023-03-11T01:51:26.303Z,20.91
2023-03-11T01:52:26.359Z,20.91
2023-03-11T01:53:26.441Z,20.91
2023-03-11T01:54:26.556Z,20.91
2023-03-11T01:55:26.640Z,20.88
2023-03-11T01:56:26.749Z,20.91
2023-03-11T01:57:26.802Z,20.90
2023-03-11T01:58:26.870Z,20.90
2023-03-11T01:59:27.033Z,20.87
2023-03-11T02:00:27.099Z,20.88
2023-03-11T02:01:27.166Z,20.90
2023-03-11T02:02:27.279Z,20.88
2023-03-11T02:03:27.292Z,20.88
2023-03-11T02:04:27.391Z,20.87
2023-03-11T02:05:27.501Z,20.87
2023-03-11T02:06:27.632Z,20.85
2023-03-11T02:07:27.671Z,20.87
2023-03-11T02:08:27.768Z,20.85
2023-03-11T02:09:27.892Z,20.85
2023-03-11T02:10:27.987Z,20.83
2023-03-11T02:11:28.070Z,20.83
2023-03-11T02:12:28.113Z,20.85
2023-03-11T02:13:28.202Z,20.85
2023-03-11T02:14:28.442Z,20.83
2023-03-11T02:15:28.451Z,20.85
2023-03-11T02:16:28.514Z,20.85
2023-03-11T02:17:28.544Z,20.83
2023-03-11T02:18:28.666Z,20.82
2023-03-11T02:19:28.721Z,20.82
2023-03-11T02:20:28.816Z,20.81
2023-03-11T02:21:28.948Z,20.82
2023-03-11T02:22:28.999Z,20.81
2023-03-11T02:23:29.116Z,20.82
2023-03-11T02:24:29.212Z,20.81
2023-03-11T02:25:29.283Z,20.81
2023-03-11T02:26:29.381Z,20.79
2023-03-11T02:27:29.482Z,20.81
2023-03-11T02:28:29.597Z,20.81
2023-03-11T02:29:29.685Z,20.79
2023-03-11T02:30:29.731Z,20.79
2023-03-11T02:31:29.941Z,20.79
2023-03-11T02:32:29.970Z,20.78
2023-03-11T02:33:29.981Z,20.79
2023-03-11T02:34:30.094Z,20.78
2023-03-11T02:35:30.178Z,20.79
2023-03-11T02:36:30.269Z,20.78
2023-03-11T02:37:30.375Z,20.78
2023-03-11T02:38:30.479Z,20.76
2023-03-11T02:39:30.526Z,20.76
2023-03-11T02:40:30.613Z,20.76
2023-03-11T02:41:30.677Z,20.78
2023-03-11T02:42:30.794Z,20.75
2023-03-11T02:43:30.883Z,20.75
2023-03-11T02:44:30.969Z,20.75
2023-03-11T02:45:31.065Z,20.75
2023-03-11T02:46:31.239Z,20.75
2023-03-11T02:47:31.259Z,20.75
2023-03-11T02:48:31.361Z,20.73
2023-03-11T02:49:31.419Z,20.73
2023-03-11T02:50:31.570Z,20.72
2023-03-11T02:51:31.796Z,20.73
2023-03-11T02:52:32.628Z,20.72
2023-03-11T02:53:31.933Z,20.73
2023-03-11T02:54:31.956Z,20.72
2023-03-11T02:55:31.946Z,20.72
2023-03-11T02:56:32.035Z,20.72
2023-03-11T02:57:32.100Z,20.72
2023-03-11T02:58:32.241Z,20.71
2023-03-11T02:59:32.325Z,20.71
2023-03-11T03:00:32.469Z,20.69
2023-03-11T03:01:32.476Z,20.71
2023-03-11T03:02:32.522Z,20.69
2023-03-11T03:03:32.641Z,20.69
2023-03-11T03:04:32.885Z,20.69
2023-03-11T03:05:32.797Z,20.69
2023-03-11T03:06:32.894Z,20.69
2023-03-11T03:07:32.979Z,20.69
2023-03-11T03:08:33.161Z,20.69
2023-03-11T03:09:33.177Z,20.68
2023-03-11T03:10:33.256Z,20.68
2023-03-11T03:11:33.367Z,20.69
2023-03-11T03:12:33.426Z,20.68
2023-03-11T03:13:33.552Z,20.66
2023-03-11T03:14:33.603Z,20.66
2023-03-11T03:15:33.739Z,20.68
2023-03-11T03:16:33.768Z,20.66
2023-03-11T03:17:33.867Z,20.68
2023-03-11T03:18:33.976Z,20.64
2023-03-11T03:19:34.010Z,20.66
2023-03-11T03:20:34.084Z,20.64
2023-03-11T03:21:34.241Z,20.66
2023-03-11T03:22:34.275Z,20.64
2023-03-11T03:23:34.371Z,20.64
2023-03-11T03:24:34.458Z,20.64
2023-03-11T03:25:34.518Z,20.64
2023-03-11T03:26:34.634Z,20.63
2023-03-11T03:27:34.693Z,20.61
2023-03-11T03:28:34.790Z,20.63
2023-03-11T03:29:34.842Z,20.63
2023-03-11T03:30:34.988Z,20.60
2023-03-11T03:31:35.016Z,20.60
2023-03-11T03:32:35.142Z,20.61
2023-03-11T03:33:35.165Z,20.61
2023-03-11T03:34:35.288Z,20.60
2023-03-11T03:35:35.382Z,20.61
2023-03-11T03:36:35.468Z,20.60
2023-03-11T03:37:35.600Z,20.61
2023-03-11T03:38:35.666Z,20.60
2023-03-11T03:39:35.776Z,20.60
2023-03-11T03:40:35.809Z,20.60
2023-03-11T03:41:35.925Z,20.60
2023-03-11T03:42:35.972Z,20.60
2023-03-11T03:43:36.084Z,20.60
2023-03-11T03:47:07.165Z,20.54
2023-03-11T03:48:08.192Z,20.56
2023-03-11T03:49:08.273Z,20.54
2023-03-11T03:50:08.331Z,20.56
2023-03-11T03:51:08.402Z,20.54
2023-03-11T03:52:08.460Z,20.54
2023-03-11T03:53:08.532Z,20.57
2023-03-11T03:54:08.789Z,20.56
2023-03-11T03:55:08.680Z,20.56
2023-03-11T03:56:08.750Z,20.54
2023-03-11T03:57:08.837Z,20.56
2023-03-11T03:58:08.913Z,20.56
2023-03-11T03:59:08.982Z,20.56
2023-03-11T04:00:09.120Z,20.56
2023-03-11T04:01:09.135Z,20.56
2023-03-11T04:02:09.254Z,20.54
2023-03-11T04:03:09.287Z,20.54
2023-03-11T04:04:09.362Z,20.57
2023-03-11T04:05:09.427Z,20.54
2023-03-11T04:06:09.516Z,20.56
2023-03-11T04:07:09.607Z,20.54
2023-03-11T04:08:09.665Z,20.53
2023-03-11T04:09:09.745Z,20.53
2023-03-11T04:10:09.813Z,20.53
2023-03-11T04:11:09.880Z,20.51
2023-03-11T04:12:09.944Z,20.53
2023-03-11T08:13:35.650Z,21.91
2023-03-11T08:14:36.665Z,21.94
2023-03-11T08:15:36.771Z,21.98
2023-03-11T08:16:36.853Z,21.99
2023-03-11T08:17:36.954Z,22.01
2023-03-11T08:18:37.068Z,22.04
2023-03-11T08:19:37.170Z,22.05
2023-03-11T08:20:37.205Z,22.06
2023-03-11T08:21:37.287Z,22.08
2023-03-11T08:22:43.399Z,22.06
2023-03-11T08:23:37.466Z,22.09
2023-03-11T08:24:37.584Z,22.09
2023-03-11T08:25:37.677Z,22.09
2023-03-11T08:26:37.768Z,22.11
2023-03-11T08:27:37.911Z,22.11
2023-03-11T08:28:37.915Z,22.11
2023-03-11T08:29:38.028Z,22.11
2023-03-11T08:30:38.105Z,22.12
2023-03-11T08:31:38.402Z,22.14
2023-03-11T08:32:38.354Z,22.14
2023-03-11T08:33:38.394Z,22.15
2023-03-11T08:34:38.451Z,22.15
2023-03-11T08:35:38.581Z,22.14
2023-03-11T08:36:38.604Z,22.15
2023-03-11T08:37:38.688Z,22.19
2023-03-11T08:38:38.839Z,22.17
2023-03-11T08:39:38.920Z,22.20
2023-03-11T10:17:54.619Z,22.99
2023-03-11T10:36:42.793Z,22.79
2023-03-11T10:37:49.657Z,22.81
2023-03-11T10:38:43.884Z,22.84
2023-03-11T10:39:43.914Z,22.81
2023-03-11T10:40:43.947Z,22.81
2023-03-11T10:41:44.001Z,22.81
2023-03-11T10:42:44.056Z,22.81
2023-03-11T10:43:44.140Z,22.76
2023-03-11T10:44:44.187Z,22.74
2023-03-11T10:45:44.256Z,22.69
2023-03-11T10:46:44.287Z,22.66
2023-03-11T10:47:44.349Z,22.63
2023-03-11T10:48:44.450Z,22.61
2023-03-11T10:49:44.471Z,22.60
2023-03-11T10:50:44.563Z,22.61
2023-03-11T10:51:44.588Z,22.60
2023-03-11T10:52:44.633Z,22.61
2023-03-11T10:53:44.725Z,22.61
2023-03-11T10:54:44.751Z,22.61
